Trebujena, Spain
Current Conditions -  °F | °C
As of 1:00 PM on Sunday 23 Nov 2014 (Local Time) from LEJR Reporting Station
Few Clouds Few Clouds  
Wind Chill: 72°   Ceiling: Unl
Heat Index: 72°   Visibility: 4mi
Dew Point: 55°   Wind: 0mph
Humidity: 57%   Direction: NA
Pressure: 29.83"   Gusts: NA
Location:  36.87°N, 6.18°W
Report Text: LEJR 231200Z 00000KT 7000 FEW060 22/13 Q1010
Loading
Personal Weather Stations






























Interactive Weather Map New forecast layout! Learn more

10-Day Weather Forecast

Advertisements
Track Severe Weather on mobile